Centralia, Texas
Current Conditions -  °F | °C
As of 9:04 AM on Friday 19 Dec 2014 (Local Time) from KLFK Reporting Station
Moderate Rain Moderate Rain  
Wind Chill: 52°   Ceiling: 600
Heat Index: 52°   Visibility: 3mi
Dew Point: 48°   Wind: 8mph
Humidity: 86%   Direction: 350°N
Pressure: 30.15"   Gusts: NA
Location:  31.26°N, 95.04°W
Report Text: KLFK 191504Z AUTO 35007KT 3SM RA BR OVC006 11/09 A3015 RMK AO2 CIG 004V009 P0004 T01110089
Loading
Personal Weather Stations






























Interactive Weather Map New forecast layout! Learn more

10-Day Weather Forecast

Advertisements
Track Severe Weather on mobile